Time;durP1;ratioP1;P1;durP2;ratioP2;P2;SDS_P1;SDS_P2;PMS_P1;PMS_P2;Temp;Humidity;BMP_temperature;BMP_pressure;BME280_temperature;BME280_humidity;BME280_pressure;Samples;Min_cycle;Max_cycle;Signal;HPM_P1;HPM_P2
2022/10/30 00:01:42;;;;;;;21.03;13.23;;;13.40;80.40;;;;;;5011213;28;20510;-54
2022/10/30 00:04:09;;;;;;;21.73;13.07;;;13.40;81.50;;;;;;5013247;28;20476;-52
2022/10/30 00:06:35;;;;;;;20.37;13.87;;;13.40;86.60;;;;;;5011678;28;20499;-54
2022/10/30 00:09:03;;;;;;;24.30;12.63;;;13.40;89.60;;;;;;5012365;28;20572;-54
2022/10/30 00:11:30;;;;;;;22.20;13.43;;;13.40;98.50;;;;;;5013378;28;20475;-53
2022/10/30 00:13:57;;;;;;;31.40;12.27;;;13.40;97.60;;;;;;5010471;28;20467;-52
2022/10/30 00:16:23;;;;;;;21.47;13.30;;;13.30;99.90;;;;;;5009025;28;20459;-53
2022/10/30 00:18:50;;;;;;;20.30;12.90;;;13.30;99.90;;;;;;5011372;28;21009;-52
2022/10/30 00:21:17;;;;;;;25.30;13.87;;;13.30;99.90;;;;;;5009624;28;20464;-52
2022/10/30 00:23:47;;;;;;;22.07;13.90;;;13.30;99.90;;;;;;5012449;28;20455;-53
2022/10/30 00:26:15;;;;;;;25.03;14.60;;;13.30;99.90;;;;;;5008946;28;20463;-53
2022/10/30 00:28:42;;;;;;;20.77;13.47;;;13.20;99.90;;;;;;5007951;28;20973;-54
2022/10/30 00:31:09;;;;;;;20.40;14.20;;;13.30;99.90;;;;;;5009799;28;20495;-54
2022/10/30 00:33:35;;;;;;;25.70;14.40;;;13.20;99.90;;;;;;5011415;28;20487;-54
2022/10/30 00:36:02;;;;;;;24.73;15.23;;;13.20;99.90;;;;;;5009696;28;20491;-55
2022/10/30 00:38:28;;;;;;;31.90;15.17;;;13.20;99.90;;;;;;5011668;28;20502;-53
2022/10/30 00:40:55;;;;;;;33.33;14.23;;;13.20;99.90;;;;;;5012298;28;20464;-52
2022/10/30 00:43:31;;;;;;;26.70;15.43;;;13.20;99.90;;;;;;5012145;28;20500;-53
2022/10/30 00:46:01;;;;;;;27.80;16.10;;;13.20;99.90;;;;;;5006511;28;20526;-52
2022/10/30 00:48:28;;;;;;;24.67;16.17;;;13.10;99.90;;;;;;5011778;28;20574;-53
2022/10/30 00:50:56;;;;;;;20.67;15.43;;;13.10;99.90;;;;;;5006118;28;20498;-52
2022/10/30 00:53:24;;;;;;;24.00;15.90;;;13.00;99.90;;;;;;5009537;28;20510;-52
2022/10/30 00:55:54;;;;;;;25.47;14.77;;;13.10;99.90;;;;;;5010458;28;20462;-54
2022/10/30 00:58:29;;;;;;;21.20;15.53;;;13.00;99.90;;;;;;5010368;28;20487;-52
2022/10/30 01:01:00;;;;;;;31.47;16.40;;;13.00;99.90;;;;;;5009395;28;20502;-53
2022/10/30 01:03:28;;;;;;;26.87;16.70;;;13.00;99.90;;;;;;5006555;28;20491;-52
2022/10/30 01:06:00;;;;;;;27.30;15.70;;;13.00;99.90;;;;;;5005504;28;20534;-53
2022/10/30 01:08:27;;;;;;;27.70;16.13;;;13.00;99.90;;;;;;5010604;28;20585;-54
2022/10/30 01:10:54;;;;;;;22.40;16.00;;;13.00;99.90;;;;;;5005910;28;20491;-52
2022/10/30 01:13:22;;;;;;;24.00;15.40;;;13.00;99.90;;;;;;5008873;28;20460;-54
2022/10/30 01:15:59;;;;;;;29.27;16.33;;;13.00;99.90;;;;;;5001788;28;20525;-52
2022/10/30 01:18:41;;;;;;;23.60;17.13;;;13.00;99.90;;;;;;5008498;28;20514;-54
2022/10/30 01:21:17;;;;;;;21.57;15.80;;;13.00;99.90;;;;;;5005713;28;20500;-54
2022/10/30 01:23:55;;;;;;;26.37;16.20;;;13.00;99.90;;;;;;5009561;28;20554;-52
2022/10/30 01:26:34;;;;;;;30.53;16.20;;;13.00;99.90;;;;;;5008264;28;20487;-53
2022/10/30 01:29:11;;;;;;;24.03;15.40;;;13.00;99.90;;;;;;5009763;28;20518;-53
2022/10/30 01:31:50;;;;;;;30.67;15.90;;;13.00;99.90;;;;;;5005354;28;20499;-52
2022/10/30 01:34:21;;;;;;;27.67;16.43;;;13.00;99.90;;;;;;5008978;28;20495;-52
2022/10/30 01:36:54;;;;;;;30.57;17.53;;;13.00;99.90;;;;;;5008116;28;20463;-54
2022/10/30 01:39:24;;;;;;;22.40;16.07;;;12.90;99.90;;;;;;5010121;28;20484;-54
2022/10/30 01:41:52;;;;;;;24.20;14.30;;;12.90;99.90;;;;;;5009037;28;20547;-53
2022/10/30 01:44:21;;;;;;;27.80;14.43;;;12.90;99.90;;;;;;5009575;28;20467;-54
2022/10/30 01:47:03;;;;;;;26.73;15.83;;;12.90;99.90;;;;;;5007613;28;20514;-54
2022/10/30 01:50:07;;;;;;;27.03;16.30;;;12.80;99.90;;;;;;5007764;28;20541;-55
2022/10/30 01:52:40;;;;;;;28.37;15.40;;;12.70;99.90;;;;;;5009655;28;20496;-54
2022/10/30 01:55:17;;;;;;;22.30;14.30;;;12.70;99.90;;;;;;5010314;28;20534;-54
2022/10/30 01:57:51;;;;;;;31.03;15.50;;;12.70;99.90;;;;;;5008696;28;21001;-55
2022/10/30 02:00:18;;;;;;;27.27;15.10;;;12.60;99.90;;;;;;5008704;28;20456;-54
2022/10/30 02:02:46;;;;;;;23.00;16.27;;;12.60;99.90;;;;;;5004503;28;20499;-54
2022/10/30 02:05:21;;;;;;;22.17;14.20;;;12.60;99.90;;;;;;5006549;28;20503;-53
2022/10/30 02:07:47;;;;;;;21.60;16.63;;;12.50;99.90;;;;;;5010474;28;20506;-53
2022/10/30 02:10:14;;;;;;;20.70;14.20;;;12.50;99.90;;;;;;5010487;28;20518;-53
2022/10/30 02:12:41;;;;;;;21.00;14.60;;;12.50;99.90;;;;;;5008748;28;20539;-52
2022/10/30 02:15:09;;;;;;;26.77;14.80;;;12.50;99.90;;;;;;5007968;28;20495;-54
2022/10/30 02:17:36;;;;;;;28.30;15.37;;;12.50;99.90;;;;;;5009109;28;20523;-55
2022/10/30 02:20:03;;;;;;;31.07;16.37;;;12.50;99.90;;;;;;5009105;28;20455;-54
2022/10/30 02:22:31;;;;;;;25.47;17.23;;;12.50;99.90;;;;;;5007307;28;20935;-53
2022/10/30 02:24:57;;;;;;;25.87;15.90;;;12.50;99.90;;;;;;5010837;28;20483;-55
2022/10/30 02:27:24;;;;;;;26.43;18.33;;;12.50;99.90;;;;;;5008417;28;20554;-54
2022/10/30 02:29:50;;;;;;;19.90;15.13;;;12.50;99.90;;;;;;5002644;28;20551;-54
2022/10/30 02:32:17;;;;;;;24.17;15.30;;;12.50;99.90;;;;;;5005200;28;20495;-55
2022/10/30 02:34:43;;;;;;;20.30;15.00;;;12.50;99.90;;;;;;5007442;28;20491;-54
2022/10/30 02:37:10;;;;;;;23.37;17.03;;;12.40;99.90;;;;;;5011411;28;20498;-52
2022/10/30 02:39:38;;;;;;;25.17;16.63;;;12.50;99.90;;;;;;5013527;28;20509;-53
2022/10/30 02:42:05;;;;;;;24.70;16.47;;;12.60;99.90;;;;;;5011791;28;20517;-54
2022/10/30 02:44:31;;;;;;;29.87;18.13;;;12.60;99.90;;;;;;5008197;28;20554;-54
2022/10/30 02:46:58;;;;;;;29.53;16.77;;;12.80;99.90;;;;;;5011096;28;20989;-54
2022/10/30 02:49:25;;;;;;;28.50;17.27;;;12.90;99.90;;;;;;5015263;28;20838;-52
2022/10/30 02:51:51;;;;;;;25.77;16.80;;;12.90;99.90;;;;;;5011761;28;20945;-52
2022/10/30 02:54:18;;;;;;;21.80;16.33;;;12.80;99.90;;;;;;5011303;28;20499;-52
2022/10/30 02:56:46;;;;;;;23.70;16.17;;;12.80;99.90;;;;;;5012702;28;20542;-52
2022/10/30 02:59:12;;;;;;;33.23;16.20;;;12.80;99.90;;;;;;5012676;28;20558;-54
2022/10/30 03:01:39;;;;;;;28.13;16.47;;;12.70;99.90;;;;;;5008405;28;20475;-53
2022/10/30 03:04:05;;;;;;;22.90;16.20;;;12.60;99.90;;;;;;5010397;28;20498;-53
2022/10/30 03:06:32;;;;;;;24.37;15.37;;;12.50;99.90;;;;;;5012390;28;20490;-54
2022/10/30 03:08:59;;;;;;;34.97;16.47;;;12.60;99.90;;;;;;5013236;28;20511;-53
2022/10/30 03:11:26;;;;;;;33.03;15.73;;;12.60;99.90;;;;;;5012531;28;20490;-53
2022/10/30 03:13:54;;;;;;;25.40;17.70;;;12.70;99.90;;;;;;5012319;28;20505;-53
2022/10/30 03:16:22;;;;;;;29.10;17.73;;;12.80;99.90;;;;;;5009908;28;20516;-53
2022/10/30 03:18:51;;;;;;;25.47;18.10;;;12.80;99.90;;;;;;5010981;28;20533;-54
2022/10/30 03:21:19;;;;;;;28.30;17.37;;;12.70;99.90;;;;;;5011698;28;20491;-53
2022/10/30 03:23:46;;;;;;;22.93;15.40;;;12.70;99.90;;;;;;5012179;28;20498;-53
2022/10/30 03:26:13;;;;;;;26.90;17.90;;;12.60;99.90;;;;;;5013477;28;20557;-53
2022/10/30 03:28:42;;;;;;;27.90;17.60;;;12.70;99.90;;;;;;5012623;28;20518;-53
2022/10/30 03:31:12;;;;;;;26.50;17.40;;;12.70;99.90;;;;;;5013643;28;20526;-54
2022/10/30 03:33:39;;;;;;;30.43;18.70;;;12.80;99.90;;;;;;5009418;28;20486;-54
2022/10/30 03:36:07;;;;;;;26.90;16.97;;;12.90;99.90;;;;;;5010383;28;20962;-53
2022/10/30 03:38:35;;;;;;;27.63;18.17;;;12.90;99.90;;;;;;5011743;28;20549;-53
2022/10/30 03:41:01;;;;;;;29.73;17.10;;;12.90;99.90;;;;;;5011276;28;20516;-54
2022/10/30 03:43:28;;;;;;;31.60;17.80;;;12.90;99.90;;;;;;5010172;28;20510;-55
2022/10/30 03:45:56;;;;;;;31.17;16.07;;;12.90;99.90;;;;;;5011622;28;21123;-54
2022/10/30 03:48:25;;;;;;;27.17;16.37;;;12.90;99.90;;;;;;5009954;28;20512;-54
2022/10/30 03:50:53;;;;;;;25.13;16.67;;;12.90;99.90;;;;;;5012905;28;20519;-55
2022/10/30 03:53:19;;;;;;;24.87;16.03;;;12.80;99.90;;;;;;5011858;28;20506;-54
2022/10/30 03:55:46;;;;;;;20.90;15.97;;;12.70;99.90;;;;;;5013208;28;20475;-53
2022/10/30 03:58:12;;;;;;;27.20;16.43;;;12.70;99.90;;;;;;5011238;28;21040;-54
2022/10/30 04:00:39;;;;;;;30.60;16.37;;;12.70;99.90;;;;;;5011906;28;20498;-54
2022/10/30 04:03:07;;;;;;;27.07;18.10;;;12.60;99.90;;;;;;5009692;28;20553;-55
2022/10/30 04:05:35;;;;;;;29.70;16.67;;;12.60;99.90;;;;;;5011239;28;20492;-55
2022/10/30 04:08:06;;;;;;;25.93;15.70;;;12.60;99.90;;;;;;5008557;28;20475;-53
2022/10/30 04:10:33;;;;;;;22.50;16.67;;;12.60;99.90;;;;;;5012306;28;21149;-54
2022/10/30 04:13:01;;;;;;;20.90;14.43;;;12.60;99.90;;;;;;5011067;28;20492;-52
2022/10/30 04:15:27;;;;;;;22.30;15.00;;;12.50;99.90;;;;;;5011278;28;20499;-55
2022/10/30 04:17:54;;;;;;;24.00;15.20;;;12.50;99.90;;;;;;5011087;28;21069;-54
2022/10/30 04:20:22;;;;;;;20.70;14.30;;;12.50;99.90;;;;;;5010823;28;20487;-53
2022/10/30 04:22:56;;;;;;;21.63;14.87;;;12.40;99.90;;;;;;5010937;28;21004;-52
2022/10/30 04:25:23;;;;;;;19.40;15.13;;;12.40;99.90;;;;;;5011258;28;20466;-53
2022/10/30 04:27:51;;;;;;;23.43;14.87;;;12.40;99.90;;;;;;5010220;28;21051;-53
2022/10/30 04:30:20;;;;;;;20.83;13.50;;;12.30;99.90;;;;;;5009025;28;21032;-53
2022/10/30 04:32:47;;;;;;;26.17;15.90;;;12.30;99.90;;;;;;5010145;28;20460;-52
2022/10/30 04:35:14;;;;;;;31.17;15.03;;;12.30;99.90;;;;;;5009839;28;20470;-52
2022/10/30 04:37:40;;;;;;;22.77;14.17;;;12.30;99.90;;;;;;5011854;28;20487;-53
2022/10/30 04:40:10;;;;;;;20.97;13.83;;;12.30;99.90;;;;;;5011067;28;20494;-51
2022/10/30 04:42:36;;;;;;;24.23;15.27;;;12.30;99.90;;;;;;5003029;28;20561;-55
2022/10/30 04:45:03;;;;;;;24.07;13.43;;;12.30;99.90;;;;;;5010048;28;20491;-52
2022/10/30 04:47:30;;;;;;;31.10;15.77;;;12.30;99.90;;;;;;5009105;28;20554;-53
2022/10/30 04:49:57;;;;;;;20.30;14.43;;;12.30;99.90;;;;;;5004077;28;20480;-54
2022/10/30 04:52:24;;;;;;;29.07;15.10;;;12.30;99.90;;;;;;5005737;28;20902;-52
2022/10/30 04:54:50;;;;;;;17.20;13.07;;;12.20;99.90;;;;;;5009037;28;20495;-54
2022/10/30 04:57:18;;;;;;;24.50;16.90;;;12.20;99.90;;;;;;5009927;28;20499;-52
2022/10/30 04:59:44;;;;;;;35.47;21.70;;;12.20;99.90;;;;;;5010269;28;20480;-52
2022/10/30 05:02:11;;;;;;;29.13;20.57;;;12.30;99.90;;;;;;5008056;28;20488;-52
2022/10/30 05:04:38;;;;;;;42.43;21.87;;;12.30;99.90;;;;;;5009744;28;20506;-53
2022/10/30 05:07:04;;;;;;;29.13;20.20;;;12.30;99.90;;;;;;5010274;28;20511;-53
2022/10/30 05:09:31;;;;;;;27.40;15.30;;;12.30;99.90;;;;;;5008918;28;20459;-53
2022/10/30 05:11:57;;;;;;;24.40;15.10;;;12.30;99.90;;;;;;5009244;28;20529;-53
2022/10/30 05:14:28;;;;;;;25.90;14.60;;;12.40;99.90;;;;;;5010297;28;20553;-53
2022/10/30 05:16:55;;;;;;;26.23;16.00;;;12.40;99.90;;;;;;5010030;28;20460;-53
2022/10/30 05:19:22;;;;;;;27.73;16.20;;;12.50;99.90;;;;;;5010096;28;21009;-52
2022/10/30 05:21:49;;;;;;;21.77;14.97;;;12.40;99.90;;;;;;5009799;28;20993;-52
2022/10/30 05:24:15;;;;;;;23.27;15.23;;;12.50;99.90;;;;;;5002871;28;20467;-53
2022/10/30 05:26:42;;;;;;;22.50;16.00;;;12.50;99.90;;;;;;5010648;28;21047;-55
2022/10/30 05:29:08;;;;;;;24.20;14.90;;;12.50;99.90;;;;;;5011216;28;21091;-53
2022/10/30 05:31:36;;;;;;;24.87;15.60;;;12.60;99.90;;;;;;5009511;28;20487;-53
2022/10/30 05:34:03;;;;;;;35.70;22.07;;;12.60;99.90;;;;;;5008557;28;20475;-53
2022/10/30 05:36:29;;;;;;;24.50;15.33;;;12.70;99.90;;;;;;5010602;28;20471;-53
2022/10/30 05:38:56;;;;;;;22.83;16.60;;;12.80;99.90;;;;;;5008519;28;20542;-53
2022/10/30 05:41:23;;;;;;;24.23;16.57;;;12.90;99.90;;;;;;5010672;28;20494;-54
2022/10/30 05:43:49;;;;;;;23.97;15.30;;;13.00;99.90;;;;;;5009143;28;20464;-51
2022/10/30 05:46:16;;;;;;;22.97;15.20;;;13.10;99.90;;;;;;5010150;28;20499;-52
2022/10/30 05:48:44;;;;;;;24.10;16.90;;;13.10;99.90;;;;;;5007136;28;20522;-54
2022/10/30 05:51:11;;;;;;;30.77;17.40;;;13.20;99.90;;;;;;5010855;28;20523;-54
2022/10/30 05:53:37;;;;;;;29.73;16.37;;;13.20;99.90;;;;;;5007104;28;21024;-53
2022/10/30 05:56:04;;;;;;;29.17;16.23;;;13.20;99.90;;;;;;5010153;28;20522;-55
2022/10/30 05:58:31;;;;;;;25.40;16.70;;;13.10;99.90;;;;;;5008725;28;20618;-54
2022/10/30 06:00:57;;;;;;;32.73;16.73;;;13.10;99.90;;;;;;5010888;28;20456;-52
2022/10/30 06:03:24;;;;;;;25.43;17.07;;;13.10;99.90;;;;;;5008910;28;20511;-52
2022/10/30 06:05:52;;;;;;;32.20;20.67;;;13.10;99.90;;;;;;5008305;28;20502;-52
2022/10/30 06:08:18;;;;;;;44.07;22.80;;;13.00;99.90;;;;;;5008391;28;20518;-52
2022/10/30 06:10:45;;;;;;;23.33;16.43;;;13.00;99.90;;;;;;5003767;28;20479;-53
2022/10/30 06:13:12;;;;;;;31.83;17.77;;;13.00;99.90;;;;;;5013184;28;20499;-53
2022/10/30 06:15:38;;;;;;;31.13;17.57;;;13.00;99.90;;;;;;5014567;28;20553;-53
2022/10/30 06:18:05;;;;;;;23.53;15.67;;;13.00;99.90;;;;;;5013405;28;20522;-53
2022/10/30 06:20:32;;;;;;;22.30;15.97;;;13.00;99.90;;;;;;5014962;28;20490;-53
2022/10/30 06:23:01;;;;;;;21.57;15.70;;;13.00;99.90;;;;;;5012179;28;20491;-54
2022/10/30 06:25:29;;;;;;;18.00;14.23;;;12.90;99.90;;;;;;5012306;28;20541;-53
2022/10/30 06:27:55;;;;;;;24.03;14.30;;;12.90;99.90;;;;;;5014264;28;20491;-53
2022/10/30 06:30:22;;;;;;;19.27;13.80;;;13.00;99.90;;;;;;5012830;28;20479;-52
2022/10/30 06:32:49;;;;;;;20.33;13.10;;;12.90;99.90;;;;;;5012076;28;20513;-52
2022/10/30 06:35:16;;;;;;;21.20;13.40;;;12.90;99.90;;;;;;5011646;28;20498;-55
2022/10/30 06:37:46;;;;;;;22.30;14.17;;;13.00;99.90;;;;;;5008811;28;20484;-53
2022/10/30 06:40:14;;;;;;;29.37;15.70;;;13.10;99.90;;;;;;5013197;28;20460;-53
2022/10/30 06:42:44;;;;;;;19.92;13.52;;;13.10;99.90;;;;;;5005353;28;20948;-53
2022/10/30 06:45:11;;;;;;;27.23;14.90;;;13.10;99.90;;;;;;5010579;28;20643;-54
2022/10/30 06:47:38;;;;;;;25.40;13.67;;;13.10;99.90;;;;;;5013469;28;20510;-54
2022/10/30 06:50:07;;;;;;;19.47;13.37;;;13.10;99.90;;;;;;5009239;28;20534;-54
2022/10/30 06:52:34;;;;;;;21.60;12.77;;;13.10;99.90;;;;;;5008325;28;20544;-55
2022/10/30 06:55:01;;;;;;;24.17;13.00;;;13.20;99.90;;;;;;5011417;28;20498;-53
2022/10/30 06:57:29;;;;;;;26.77;13.50;;;13.30;99.90;;;;;;5011446;28;20503;-54
2022/10/30 06:59:55;;;;;;;26.23;13.53;;;13.40;99.90;;;;;;5013971;28;20501;-54
2022/10/30 07:02:22;;;;;;;27.43;15.87;;;13.40;99.90;;;;;;5007357;28;20494;-52
2022/10/30 07:04:49;;;;;;;23.53;14.00;;;13.50;99.90;;;;;;5013057;28;20553;-53
2022/10/30 07:07:16;;;;;;;19.73;13.93;;;13.50;99.90;;;;;;5010727;28;22262;-52
2022/10/30 07:09:43;;;;;;;18.70;12.90;;;13.50;99.90;;;;;;5010393;28;20533;-52
2022/10/30 07:12:09;;;;;;;22.00;12.10;;;13.60;99.90;;;;;;5012580;28;21088;-52
2022/10/30 07:14:38;;;;;;;19.77;13.20;;;13.60;99.90;;;;;;5011070;28;20480;-52
2022/10/30 07:17:04;;;;;;;30.00;14.27;;;13.60;99.90;;;;;;5007574;28;21057;-52
2022/10/30 07:19:31;;;;;;;27.27;15.63;;;13.70;99.90;;;;;;5009393;28;20985;-52
2022/10/30 07:21:58;;;;;;;23.60;14.40;;;13.70;99.90;;;;;;5007255;28;20456;-51
2022/10/30 07:24:24;;;;;;;39.23;22.70;;;13.70;99.90;;;;;;5010013;28;20468;-52
2022/10/30 07:26:51;;;;;;;42.10;22.40;;;13.90;99.90;;;;;;5008111;28;20514;-51
2022/10/30 07:29:18;;;;;;;44.50;25.10;;;14.20;99.90;;;;;;5007248;28;20896;-52
2022/10/30 07:31:48;;;;;;;30.97;18.10;;;14.30;99.90;;;;;;5013429;28;20511;-50
2022/10/30 07:34:15;;;;;;;33.70;17.43;;;14.60;99.90;;;;;;5010801;28;20547;-51
2022/10/30 07:36:41;;;;;;;26.10;15.67;;;14.90;40.30;;;;;;5012728;28;20475;-51
2022/10/30 07:39:08;;;;;;;17.40;13.10;;;15.20;55.40;;;;;;5014289;28;20549;-51
2022/10/30 07:41:35;;;;;;;23.93;15.07;;;15.40;90.80;;;;;;5008814;28;21545;-51
2022/10/30 07:44:01;;;;;;;27.57;14.30;;;15.60;99.90;;;;;;5013694;28;21065;-52
2022/10/30 07:46:28;;;;;;;24.80;13.00;;;15.80;99.90;;;;;;5007917;28;20557;-52
2022/10/30 07:48:56;;;;;;;25.80;13.43;;;15.90;99.90;;;;;;5012219;28;20522;-52
2022/10/30 07:51:24;;;;;;;22.57;12.63;;;16.00;99.90;;;;;;5009545;28;20514;-53
2022/10/30 07:53:50;;;;;;;22.43;13.03;;;16.00;99.90;;;;;;5010442;28;20833;-52
2022/10/30 07:56:17;;;;;;;40.03;15.10;;;16.20;99.90;;;;;;5012754;28;20467;-53
2022/10/30 07:58:44;;;;;;;32.80;13.73;;;16.30;99.90;;;;;;5014965;28;21148;-51
2022/10/30 08:01:10;;;;;;;29.17;12.80;;;16.30;99.90;;;;;;5008966;28;20496;-51
2022/10/30 08:03:37;;;;;;;19.33;12.83;;;16.40;83.10;;;;;;5018090;28;20478;-52
2022/10/30 08:06:05;;;;;;;25.33;16.33;;;16.50;35.60;;;;;;5001370;28;20962;-53
2022/10/30 08:08:32;;;;;;;18.90;12.23;;;16.70;62.30;;;;;;5007286;28;20507;-52
2022/10/30 08:10:58;;;;;;;16.03;12.03;;;16.90;68.80;;;;;;5007467;28;20479;-52
2022/10/30 08:13:25;;;;;;;29.67;12.47;;;17.00;78.20;;;;;;5005442;28;20496;-51
2022/10/30 08:15:52;;;;;;;53.17;14.00;;;17.10;99.90;;;;;;5010985;28;20460;-51
2022/10/30 08:18:18;;;;;;;17.40;10.30;;;17.40;95.50;;;;;;5011377;28;21513;-53
2022/10/30 08:20:49;;;;;;;14.37;11.10;;;17.60;99.90;;;;;;5012875;28;20826;-53
2022/10/30 08:23:18;;;;;;;17.87;9.97;;;17.90;99.90;;;;;;5004615;28;20470;-53
2022/10/30 08:25:45;;;;;;;17.43;10.53;;;17.80;99.90;;;;;;5007662;28;20844;-53
2022/10/30 08:28:13;;;;;;;23.20;10.60;;;17.60;99.90;;;;;;5005085;28;20495;-53
2022/10/30 08:30:40;;;;;;;20.13;12.33;;;17.50;99.90;;;;;;5003722;28;21930;-52
2022/10/30 08:33:10;;;;;;;18.83;11.03;;;17.50;99.90;;;;;;4999958;28;20491;-52
2022/10/30 08:35:37;;;;;;;30.20;11.73;;;17.50;99.90;;;;;;4998879;28;20981;-53
2022/10/30 08:38:03;;;;;;;23.60;10.67;;;17.60;99.90;;;;;;4999919;28;20668;-53
2022/10/30 08:40:31;;;;;;;19.73;9.23;;;17.80;99.90;;;;;;5005211;28;20455;-53
2022/10/30 08:42:58;;;;;;;14.60;9.60;;;18.00;99.90;;;;;;5005827;28;20509;-52
2022/10/30 08:45:26;;;;;;;24.07;11.30;;;18.70;99.90;;;;;;5003111;28;20498;-53
2022/10/30 08:47:56;;;;;;;17.23;10.40;;;18.90;99.90;;;;;;5011859;28;20862;-52
2022/10/30 08:50:23;;;;;;;14.27;8.93;;;18.90;99.90;;;;;;5004167;28;20468;-53
2022/10/30 08:52:50;;;;;;;23.63;9.57;;;19.00;99.90;;;;;;5008539;28;20539;-52
2022/10/30 08:55:16;;;;;;;17.10;7.60;;;19.10;99.90;;;;;;5014093;28;21023;-52
2022/10/30 08:57:44;;;;;;;20.27;9.03;;;19.40;99.90;;;;;;5007900;28;22368;-54
2022/10/30 09:00:29;;;;;;;16.10;8.40;;;18.90;99.90;;;;;;5010291;28;20495;-55
2022/10/30 09:02:56;;;;;;;18.67;8.93;;;18.50;99.90;;;;;;5018548;28;20883;-52
2022/10/30 09:05:23;;;;;;;16.70;10.70;;;18.20;99.90;;;;;;5007767;28;21008;-51
2022/10/30 09:07:54;;;;;;;22.83;9.37;;;18.30;99.90;;;;;;5007480;28;20511;-51
2022/10/30 09:10:21;;;;;;;18.40;10.23;;;18.10;99.90;;;;;;5007340;28;20467;-51
2022/10/30 09:13:08;;;;;;;26.20;9.47;;;18.00;99.90;;;;;;5014968;28;20483;-56
2022/10/30 09:15:37;;;;;;;30.60;9.87;;;17.90;99.90;;;;;;5016594;28;20491;-52
2022/10/30 09:18:04;;;;;;;18.90;9.80;;;18.10;99.90;;;;;;5005357;28;20483;-52
2022/10/30 09:20:31;;;;;;;22.43;8.23;;;18.50;99.90;;;;;;5004206;28;20460;-53
2022/10/30 09:22:58;;;;;;;14.80;9.73;;;18.60;99.90;;;;;;5008652;28;20487;-51
2022/10/30 09:25:24;;;;;;;23.40;9.23;;;18.30;99.90;;;;;;5006896;28;20464;-51
2022/10/30 09:27:51;;;;;;;19.87;8.20;;;18.50;99.90;;;;;;5011442;28;20596;-52
2022/10/30 09:30:19;;;;;;;16.70;7.60;;;19.10;99.90;;;;;;5009635;28;20541;-52
2022/10/30 09:32:46;;;;;;;14.30;8.03;;;20.10;42.10;;;;;;5008934;28;20515;-53
2022/10/30 09:35:12;;;;;;;24.13;8.70;;;20.70;66.40;;;;;;5007109;28;20969;-53
2022/10/30 09:37:40;;;;;;;20.13;7.53;;;21.20;79.00;;;;;;5003539;28;20487;-52
2022/10/30 09:40:08;;;;;;;20.23;8.57;;;21.60;87.60;;;;;;5007805;28;20478;-53
2022/10/30 09:42:42;;;;;;;23.93;8.60;;;21.60;88.90;;;;;;4999661;28;20543;-53
2022/10/30 09:45:25;;;;;;;13.50;8.63;;;21.00;88.50;;;;;;5009601;28;20542;-53
2022/10/30 09:48:00;;;;;;;21.73;8.30;;;20.70;88.70;;;;;;5002835;28;20511;-54
2022/10/30 09:50:32;;;;;;;27.00;10.23;;;21.30;94.30;;;;;;5008057;28;20486;-54
2022/10/30 09:53:07;;;;;;;23.50;7.67;;;22.10;99.90;;;;;;5010965;28;20479;-54
2022/10/30 09:55:42;;;;;;;11.80;7.33;;;22.60;99.90;;;;;;5002924;28;20574;-53
2022/10/30 09:58:22;;;;;;;15.50;7.53;;;22.40;99.90;;;;;;5002058;28;20518;-53
2022/10/30 10:00:53;;;;;;;13.37;7.03;;;23.10;99.90;;;;;;5002300;28;21175;-53
2022/10/30 10:03:36;;;;;;;14.17;8.20;;;23.40;99.90;;;;;;5003299;28;21187;-54
2022/10/30 10:06:05;;;;;;;14.20;7.60;;;24.60;99.90;;;;;;4990737;28;21889;-52
2022/10/30 10:08:37;;;;;;;19.30;7.50;;;24.60;99.90;;;;;;4999177;28;20514;-53
2022/10/30 10:11:11;;;;;;;15.43;7.37;;;23.60;99.90;;;;;;5003516;28;20555;-52
2022/10/30 10:13:45;;;;;;;20.83;7.40;;;22.60;99.90;;;;;;5002534;28;20537;-52
2022/10/30 10:16:19;;;;;;;13.57;6.73;;;22.50;99.90;;;;;;5004313;28;20530;-54
2022/10/30 10:18:47;;;;;;;14.60;6.33;;;23.00;99.90;;;;;;5003282;28;20486;-53
2022/10/30 10:21:24;;;;;;;12.33;5.87;;;22.10;99.90;;;;;;5004252;28;20495;-52
2022/10/30 10:23:52;;;;;;;11.67;6.23;;;21.60;99.90;;;;;;5002694;28;20459;-53
2022/10/30 10:26:28;;;;;;;11.73;6.63;;;21.60;99.90;;;;;;4999685;28;20502;-53
2022/10/30 10:29:24;;;;;;;14.30;7.53;;;21.40;99.90;;;;;;5001654;28;20584;-53
2022/10/30 10:32:16;;;;;;;23.93;7.43;;;21.00;99.90;;;;;;4984457;28;20578;-54
2022/10/30 10:34:57;;;;;;;17.13;6.60;;;20.90;99.90;;;;;;4968405;28;20551;-53
2022/10/30 10:37:32;;;;;;;13.07;5.83;;;21.00;98.90;;;;;;5000325;28;21298;-53
2022/10/30 10:40:19;;;;;;;13.83;6.83;;;21.20;95.90;;;;;;5004755;28;20495;-53
2022/10/30 10:42:58;;;;;;;10.30;6.50;;;21.60;96.10;;;;;;5002029;28;20491;-53
2022/10/30 10:45:32;;;;;;;12.77;5.90;;;21.20;98.00;;;;;;5003656;28;20483;-54
2022/10/30 10:48:23;;;;;;;15.67;6.83;;;21.50;97.70;;;;;;5005685;28;20593;-53
2022/10/30 10:50:52;;;;;;;17.27;6.33;;;21.10;93.10;;;;;;5009271;28;20492;-55
2022/10/30 10:53:24;;;;;;;23.97;7.80;;;21.70;93.10;;;;;;5006730;28;20558;-54
2022/10/30 10:55:54;;;;;;;13.60;6.57;;;21.90;99.90;;;;;;5010440;28;20460;-54
2022/10/30 10:58:28;;;;;;;16.30;6.77;;;21.40;99.90;;;;;;5007604;28;20533;-54
2022/10/30 11:00:57;;;;;;;18.17;6.77;;;21.30;97.10;;;;;;5011873;28;20500;-54
2022/10/30 11:03:45;;;;;;;13.73;6.57;;;21.00;90.80;;;;;;5011226;28;20919;-53
2022/10/30 11:06:20;;;;;;;23.70;7.60;;;21.60;98.60;;;;;;5009156;28;20510;-55
2022/10/30 11:08:48;;;;;;;12.53;6.70;;;21.00;99.70;;;;;;5008071;28;20570;-54
2022/10/30 11:11:15;;;;;;;13.40;6.77;;;22.10;99.90;;;;;;5013022;28;20546;-53
2022/10/30 11:13:43;;;;;;;17.20;6.70;;;22.40;99.90;;;;;;5008409;28;20557;-53
2022/10/30 11:16:21;;;;;;;13.83;6.13;;;21.30;99.90;;;;;;5010363;28;20468;-53
2022/10/30 11:18:52;;;;;;;23.97;6.37;;;22.10;99.90;;;;;;5007491;28;20511;-53
2022/10/30 11:21:22;;;;;;;11.93;6.50;;;22.00;99.90;;;;;;5016610;28;20497;-54
2022/10/30 11:23:49;;;;;;;9.37;5.77;;;23.00;99.90;;;;;;5009131;28;20494;-53
2022/10/30 11:26:31;;;;;;;16.33;5.83;;;21.90;99.90;;;;;;5010982;28;20961;-54
2022/10/30 11:29:03;;;;;;;15.37;6.30;;;21.50;99.90;;;;;;5012942;28;20491;-59
2022/10/30 11:31:34;;;;;;;9.33;5.57;;;21.40;99.90;;;;;;5009594;28;20521;-54
2022/10/30 11:34:15;;;;;;;10.50;5.30;;;21.30;95.50;;;;;;5015048;28;20835;-53
2022/10/30 11:36:41;;;;;;;8.50;6.07;;;21.00;99.90;;;;;;5000111;28;20467;-53
2022/10/30 11:39:17;;;;;;;21.13;6.90;;;21.00;99.20;;;;;;5004483;28;20483;-53
2022/10/30 11:41:48;;;;;;;19.20;6.80;;;21.10;99.90;;;;;;5006682;28;20549;-55
2022/10/30 11:44:15;;;;;;;19.90;7.23;;;20.90;99.90;;;;;;5006907;28;21055;-52
2022/10/30 11:46:42;;;;;;;14.07;5.60;;;20.90;99.90;;;;;;5006750;28;20518;-53
2022/10/30 11:49:25;;;;;;;17.93;6.03;;;20.80;99.70;;;;;;5010522;28;20901;-54
2022/10/30 11:51:53;;;;;;;14.23;6.40;;;21.10;99.90;;;;;;5009636;28;20475;-54
2022/10/30 11:54:22;;;;;;;12.13;5.90;;;21.60;99.90;;;;;;5011642;28;20494;-55
2022/10/30 11:56:49;;;;;;;16.07;6.40;;;22.10;99.90;;;;;;5011232;28;20530;-53
2022/10/30 11:59:20;;;;;;;19.90;7.17;;;21.70;99.90;;;;;;5019295;28;20556;-53
2022/10/30 12:01:59;;;;;;;10.40;6.23;;;21.70;99.90;;;;;;5011289;28;20460;-53
2022/10/30 12:04:31;;;;;;;12.90;5.97;;;21.70;99.90;;;;;;5007569;28;20491;-54
2022/10/30 12:07:19;;;;;;;12.83;7.43;;;21.60;99.90;;;;;;5012214;28;20510;-52
2022/10/30 12:09:47;;;;;;;14.43;5.17;;;21.40;99.90;;;;;;5012854;28;20541;-52
2022/10/30 12:12:23;;;;;;;13.73;6.77;;;21.20;99.90;;;;;;5014177;28;20475;-51
2022/10/30 12:14:50;;;;;;;21.53;6.00;;;21.10;97.20;;;;;;5007098;28;20471;-52
2022/10/30 12:17:18;;;;;;;22.90;6.17;;;21.40;99.90;;;;;;5013390;28;20510;-52
2022/10/30 12:19:48;;;;;;;21.13;6.70;;;21.80;99.90;;;;;;5006168;28;20504;-52
2022/10/30 12:22:27;;;;;;;17.70;5.73;;;21.60;99.90;;;;;;5017605;28;20506;-55
2022/10/30 12:24:54;;;;;;;30.50;6.67;;;21.60;99.90;;;;;;5004002;28;20980;-52
2022/10/30 12:27:20;;;;;;;16.80;6.17;;;21.50;98.20;;;;;;5004902;28;20523;-52
2022/10/30 12:29:59;;;;;;;10.87;5.67;;;21.40;97.00;;;;;;5008262;28;20491;-51
2022/10/30 12:32:33;;;;;;;17.13;6.43;;;21.40;99.90;;;;;;5004266;28;20522;-51
2022/10/30 12:35:05;;;;;;;16.60;6.13;;;21.50;99.90;;;;;;5005788;28;20495;-51
2022/10/30 12:37:37;;;;;;;10.80;6.30;;;21.50;99.90;;;;;;5007733;28;20507;-51
2022/10/30 12:40:10;;;;;;;10.33;6.47;;;21.80;99.90;;;;;;5006657;28;20509;-51
2022/10/30 12:42:40;;;;;;;18.10;6.20;;;21.70;99.90;;;;;;5005429;28;20488;-50